Time;durP1;ratioP1;P1;durP2;ratioP2;P2;SDS_P1;SDS_P2;PMS_P1;PMS_P2;Temp;Humidity;BMP_temperature;BMP_pressure;BME280_temperature;BME280_humidity;BME280_pressure;Samples;Min_cycle;Max_cycle;Signal;HPM_P1;HPM_P2
2021/09/24 00:01:09;;;;;;;;;;;15.50;99.90;;;;;;5015244;28;20082;-79
2021/09/24 00:03:36;;;;;;;6.68;2.92;;;15.40;99.90;;;;;;5014791;28;20396;-79
2021/09/24 00:06:02;;;;;;;6.68;2.78;;;15.50;99.90;;;;;;5014827;28;20409;-79
2021/09/24 00:08:28;;;;;;;9.45;3.00;;;15.60;99.90;;;;;;5014725;28;20474;-79
2021/09/24 00:10:54;;;;;;;;;;;15.80;99.90;;;;;;5014989;28;20105;-79
2021/09/24 00:13:20;;;;;;;7.45;2.60;;;15.90;99.90;;;;;;5014512;28;19944;-79
2021/09/24 00:15:45;;;;;;;;;;;15.90;99.90;;;;;;5014975;28;20053;-79
2021/09/24 00:18:11;;;;;;;6.78;2.65;;;15.90;99.90;;;;;;5014622;28;19948;-79
2021/09/24 00:20:37;;;;;;;5.38;2.40;;;15.80;99.90;;;;;;5014449;28;20026;-79
2021/09/24 00:23:04;;;;;;;6.57;2.45;;;15.90;99.90;;;;;;5014526;28;20037;-79
2021/09/24 00:25:30;;;;;;;6.25;2.60;;;16.10;99.90;;;;;;5014736;28;20106;-79
2021/09/24 00:27:58;;;;;;;6.28;3.10;;;16.10;99.90;;;;;;5014393;28;20021;-79
2021/09/24 00:30:25;;;;;;;7.45;3.13;;;15.60;99.90;;;;;;5014353;28;20018;-79
2021/09/24 00:32:52;;;;;;;6.57;3.08;;;15.10;99.90;;;;;;5014398;28;20435;-80
2021/09/24 00:35:18;;;;;;;8.02;3.00;;;15.00;99.90;;;;;;5014181;28;20025;-79
2021/09/24 00:37:43;;;;;;;;;;;15.40;99.90;;;;;;5014483;28;20056;-79
2021/09/24 00:40:11;;;;;;;5.25;2.70;;;15.90;99.90;;;;;;5014267;28;20314;-79
2021/09/24 00:42:37;;;;;;;5.72;2.70;;;16.00;99.90;;;;;;5014273;28;20051;-79
2021/09/24 00:45:04;;;;;;;4.57;2.42;;;16.20;99.90;;;;;;5012725;28;20029;-79
2021/09/24 00:47:31;;;;;;;5.90;2.50;;;16.20;99.90;;;;;;5013997;28;20072;-79
2021/09/24 00:49:57;;;;;;;7.32;2.75;;;16.00;99.90;;;;;;5013888;28;20494;-79
2021/09/24 00:52:24;;;;;;;7.25;2.80;;;16.00;99.90;;;;;;5013971;28;20022;-79
2021/09/24 00:54:51;;;;;;;6.97;3.25;;;16.00;99.90;;;;;;5013905;28;20014;-79
2021/09/24 00:57:19;;;;;;;6.60;3.20;;;15.60;99.90;;;;;;5013860;28;20018;-79
2021/09/24 00:59:48;;;;;;;6.63;3.13;;;15.30;99.90;;;;;;5014018;28;20076;-79
2021/09/24 01:02:14;;;;;;;7.28;3.47;;;15.30;99.90;;;;;;5013840;28;20022;-79
2021/09/24 01:04:40;;;;;;;;;;;15.20;99.90;;;;;;5014193;28;20092;-79
2021/09/24 01:07:06;;;;;;;5.78;2.70;;;15.10;99.90;;;;;;5012520;28;19917;-79
2021/09/24 01:09:33;;;;;;;7.05;2.67;;;15.30;99.90;;;;;;5013711;28;20449;-79
2021/09/24 01:12:02;;;;;;;6.97;2.70;;;15.80;99.90;;;;;;5013662;28;20474;-79
2021/09/24 01:14:29;;;;;;;6.68;3.30;;;16.00;99.90;;;;;;5013601;28;20065;-79
2021/09/24 01:16:56;;;;;;;8.07;3.42;;;15.90;99.90;;;;;;5014055;28;20449;-79
2021/09/24 01:19:22;;;;;;;6.47;2.90;;;15.60;99.90;;;;;;5013565;28;20067;-79
2021/09/24 01:21:47;;;;;;;;;;;15.70;99.90;;;;;;5013985;28;20041;-79
2021/09/24 01:24:13;;;;;;;7.63;2.90;;;15.80;99.90;;;;;;5011705;28;19905;-79
2021/09/24 01:26:50;;;;;;;6.97;2.80;;;15.80;99.90;;;;;;5013688;28;20030;-79
2021/09/24 01:29:17;;;;;;;6.22;2.70;;;16.00;99.90;;;;;;5012250;28;20076;-79
2021/09/24 01:31:44;;;;;;;7.05;3.05;;;16.10;99.90;;;;;;5013390;28;20061;-79
2021/09/24 01:34:10;;;;;;;6.22;2.95;;;15.90;99.90;;;;;;5012165;28;20521;-79
2021/09/24 01:36:36;;;;;;;7.22;3.05;;;16.00;99.90;;;;;;5011985;28;20033;-79
2021/09/24 01:39:09;;;;;;;;;;;16.10;99.90;;;;;;5013833;28;20030;-79
2021/09/24 01:41:44;;;;;;;10.88;3.45;;;16.00;99.90;;;;;;5013281;28;19918;-79
2021/09/24 01:44:11;;;;;;;7.60;3.45;;;15.70;99.90;;;;;;5013370;28;20028;-79
2021/09/24 01:46:38;;;;;;;6.95;3.00;;;15.70;99.90;;;;;;5013285;28;20026;-79
2021/09/24 01:49:05;;;;;;;6.15;2.92;;;15.60;99.90;;;;;;5013336;28;20029;-79
2021/09/24 01:51:33;;;;;;;7.82;3.40;;;15.70;99.90;;;;;;5013500;28;20121;-79
2021/09/24 01:53:59;;;;;;;7.00;3.35;;;15.70;99.90;;;;;;5013450;28;20073;-79
2021/09/24 01:56:25;;;;;;;5.65;2.80;;;15.30;99.90;;;;;;5013277;28;20033;-79
2021/09/24 01:58:50;;;;;;;;;;;15.60;99.90;;;;;;5013710;28;20014;-79
2021/09/24 02:01:16;;;;;;;7.25;3.00;;;16.10;99.90;;;;;;5013705;28;19916;-79
2021/09/24 02:03:41;;;;;;;;;;;15.80;99.90;;;;;;5013596;28;20026;-79
2021/09/24 02:06:07;;;;;;;7.70;3.70;;;15.80;99.90;;;;;;5013201;28;20360;-79
2021/09/24 02:08:33;;;;;;;6.70;3.30;;;15.40;99.90;;;;;;5011864;28;20026;-79
2021/09/24 02:10:59;;;;;;;7.03;3.42;;;15.30;99.90;;;;;;5013043;28;20077;-79
2021/09/24 02:13:24;;;;;;;7.35;3.47;;;15.30;99.90;;;;;;5013296;28;20045;-79
2021/09/24 02:15:50;;;;;;;;;;;15.30;99.90;;;;;;5013486;28;20449;-79
2021/09/24 02:18:17;;;;;;;8.23;3.45;;;15.20;99.90;;;;;;5013008;28;19909;-79
2021/09/24 02:20:43;;;;;;;10.75;3.60;;;15.10;99.90;;;;;;5011732;28;20030;-79
2021/09/24 02:23:09;;;;;;;;;;;15.00;99.90;;;;;;5013459;28;20389;-79
2021/09/24 02:25:35;;;;;;;10.43;3.38;;;15.00;99.90;;;;;;5013005;28;19906;-79
2021/09/24 02:28:01;;;;;;;7.05;3.58;;;15.20;99.90;;;;;;5013085;28;20032;-79
2021/09/24 02:30:26;;;;;;;;;;;15.20;99.90;;;;;;5012033;28;20037;-80
2021/09/24 02:32:52;;;;;;;6.32;3.65;;;15.20;99.90;;;;;;5012949;28;19905;-79
2021/09/24 02:35:18;;;;;;;7.88;3.50;;;15.20;99.90;;;;;;5013330;28;20022;-79
2021/09/24 02:37:44;;;;;;;9.77;3.90;;;15.20;99.90;;;;;;5016271;28;20018;-79
2021/09/24 02:40:10;;;;;;;;;;;15.20;99.90;;;;;;5016551;28;20056;-79
2021/09/24 02:42:36;;;;;;;9.93;3.58;;;15.20;99.90;;;;;;5016391;28;19963;-79
2021/09/24 02:45:02;;;;;;;;;;;15.20;99.90;;;;;;5016409;28;20034;-79
2021/09/24 02:47:28;;;;;;;7.40;3.42;;;15.50;99.90;;;;;;5014949;28;19938;-79
2021/09/24 02:49:54;;;;;;;;;;;15.40;99.90;;;;;;5016562;28;20101;-79
2021/09/24 02:52:19;;;;;;;8.43;3.33;;;15.50;99.90;;;;;;5016087;28;19905;-79
2021/09/24 02:54:45;;;;;;;9.02;3.72;;;15.30;99.90;;;;;;5016076;28;20065;-79
2021/09/24 02:57:11;;;;;;;6.15;3.13;;;15.30;99.90;;;;;;5016058;28;20022;-79
2021/09/24 02:59:37;;;;;;;6.30;3.03;;;15.30;99.90;;;;;;5016028;28;20021;-79
2021/09/24 03:02:03;;;;;;;9.35;3.53;;;15.60;99.90;;;;;;5016285;28;20101;-79
2021/09/24 03:04:28;;;;;;;;;;;16.00;99.90;;;;;;5016311;28;20494;-79
2021/09/24 03:06:54;;;;;;;8.05;3.13;;;15.90;99.90;;;;;;5015881;28;19932;-79
2021/09/24 03:09:20;;;;;;;;;;;15.90;99.90;;;;;;5016176;28;20083;-79
2021/09/24 03:11:45;;;;;;;;;;;16.20;99.90;;;;;;5014814;28;19920;-79
2021/09/24 03:14:11;;;;;;;;;;;16.10;99.90;;;;;;5014843;28;20380;-79
2021/09/24 03:16:37;;;;;;;8.35;3.30;;;16.00;99.90;;;;;;5015793;28;19905;-79
2021/09/24 03:19:05;;;;;;;7.07;3.50;;;16.00;99.90;;;;;;5015658;28;20095;-79
2021/09/24 03:21:31;;;;;;;6.22;3.20;;;16.00;99.90;;;;;;5014296;28;20026;-79
2021/09/24 03:23:56;;;;;;;;;;;15.90;99.90;;;;;;5015934;28;20026;-79
2021/09/24 03:26:22;;;;;;;11.85;3.40;;;16.00;99.90;;;;;;5015513;28;19906;-79
2021/09/24 03:28:48;;;;;;;6.88;3.60;;;15.90;99.90;;;;;;5015517;28;20128;-79
2021/09/24 03:31:14;;;;;;;;;;;15.90;99.90;;;;;;5015796;28;20104;-80
2021/09/24 03:33:40;;;;;;;8.38;3.15;;;16.00;99.90;;;;;;5014087;28;20000;-79
2021/09/24 03:36:06;;;;;;;;;;;15.90;99.90;;;;;;5014362;28;20062;-79
2021/09/24 03:38:32;;;;;;;8.30;3.55;;;15.80;99.90;;;;;;5015200;28;19992;-79
2021/09/24 03:40:57;;;;;;;;;;;15.90;99.90;;;;;;5015509;28;20144;-79
2021/09/24 03:43:23;;;;;;;7.28;3.10;;;16.00;99.90;;;;;;5015247;28;19917;-79
2021/09/24 03:45:49;;;;;;;6.40;3.08;;;16.20;99.90;;;;;;5015232;28;20026;-79
2021/09/24 03:48:15;;;;;;;;;;;16.20;99.90;;;;;;5015220;28;20036;-79
2021/09/24 03:50:41;;;;;;;7.47;3.10;;;16.10;99.90;;;;;;5013751;28;20327;-79
2021/09/24 03:53:06;;;;;;;;;;;16.10;99.90;;;;;;5015421;28;20093;-79
2021/09/24 03:55:32;;;;;;;8.43;3.83;;;16.40;99.90;;;;;;5014994;28;20043;-79
2021/09/24 03:57:58;;;;;;;;;;;16.20;99.90;;;;;;5015287;28;20025;-79
2021/09/24 04:00:23;;;;;;;8.15;3.35;;;16.30;99.90;;;;;;5014895;28;19906;-79
2021/09/24 04:02:49;;;;;;;;;;;16.50;99.90;;;;;;5015228;28;20021;-79
2021/09/24 04:05:15;;;;;;;11.00;4.53;;;16.40;99.90;;;;;;5014931;28;20381;-79
2021/09/24 04:07:41;;;;;;;8.38;3.50;;;16.10;99.90;;;;;;5014712;28;20030;-79
2021/09/24 04:10:07;;;;;;;11.57;3.88;;;15.80;99.90;;;;;;5014685;28;20449;-79
2021/09/24 04:12:33;;;;;;;9.15;3.95;;;15.60;99.90;;;;;;5014648;28;20018;-79
2021/09/24 04:14:59;;;;;;;10.13;4.10;;;15.50;99.90;;;;;;5014648;28;20014;-79
2021/09/24 04:17:25;;;;;;;8.65;3.70;;;15.50;99.90;;;;;;5014556;28;20026;-79
2021/09/24 04:19:51;;;;;;;;;;;15.60;99.90;;;;;;5014942;28;20018;-79
2021/09/24 04:22:16;;;;;;;7.50;3.28;;;16.00;99.90;;;;;;5014458;28;19905;-79
2021/09/24 04:24:42;;;;;;;7.18;3.20;;;16.30;99.90;;;;;;5014446;28;20022;-79
2021/09/24 04:27:08;;;;;;;;;;;16.20;99.90;;;;;;5014813;28;20064;-79
2021/09/24 04:29:33;;;;;;;6.15;2.83;;;16.20;99.90;;;;;;5014399;28;19988;-79
2021/09/24 04:31:59;;;;;;;;;;;16.30;99.90;;;;;;5014685;28;20504;-79
2021/09/24 04:34:25;;;;;;;11.35;3.97;;;16.10;99.90;;;;;;5014325;28;20424;-79
2021/09/24 04:36:51;;;;;;;;;;;16.10;99.90;;;;;;5014766;28;20022;-79
2021/09/24 04:39:17;;;;;;;10.75;3.65;;;16.40;99.90;;;;;;5014187;28;20002;-79
2021/09/24 04:41:42;;;;;;;7.55;3.35;;;16.30;99.90;;;;;;5014179;28;20084;-79
2021/09/24 04:44:08;;;;;;;;;;;16.50;99.90;;;;;;5014529;28;20034;-79
2021/09/24 04:46:34;;;;;;;7.15;3.10;;;16.70;99.90;;;;;;5013985;28;19905;-79
2021/09/24 04:48:59;;;;;;;;;;;16.70;99.90;;;;;;5014591;28;20057;-79
2021/09/24 04:51:25;;;;;;;9.55;3.90;;;16.50;99.90;;;;;;5014028;28;19952;-79
2021/09/24 04:53:51;;;;;;;8.15;3.20;;;16.30;99.90;;;;;;5014046;28;20018;-79
2021/09/24 04:56:17;;;;;;;8.00;3.65;;;16.40;99.90;;;;;;5013920;28;20034;-79
2021/09/24 04:58:43;;;;;;;;;;;16.60;99.90;;;;;;5013715;28;20022;-79
2021/09/24 05:01:09;;;;;;;10.15;4.80;;;16.40;99.90;;;;;;5013934;28;19984;-79
2021/09/24 05:03:35;;;;;;;11.77;4.40;;;16.50;99.90;;;;;;5013824;28;20451;-79
2021/09/24 05:06:01;;;;;;;;;;;16.80;99.90;;;;;;5014241;28;20097;-79
2021/09/24 05:08:27;;;;;;;10.50;4.07;;;16.50;99.90;;;;;;5013767;28;19952;-79
2021/09/24 05:10:52;;;;;;;;;;;16.20;99.90;;;;;;5014113;28;20026;-79
2021/09/24 05:13:18;;;;;;;9.77;4.18;;;16.10;99.90;;;;;;5014026;28;19912;-79
2021/09/24 05:15:43;;;;;;;;;;;16.30;99.90;;;;;;5012755;28;20499;-79
2021/09/24 05:18:09;;;;;;;9.52;4.07;;;16.50;99.90;;;;;;5013767;28;19905;-79
2021/09/24 05:20:35;;;;;;;;;;;16.70;99.90;;;;;;5013918;28;20052;-79
2021/09/24 05:23:00;;;;;;;9.35;4.05;;;16.80;99.90;;;;;;5013534;28;20263;-79
2021/09/24 05:25:26;;;;;;;;;;;16.80;99.90;;;;;;5014520;28;20026;-79
2021/09/24 05:27:53;;;;;;;8.95;4.15;;;16.60;99.90;;;;;;5013661;28;20326;-79
2021/09/24 05:30:19;;;;;;;10.15;4.57;;;16.70;99.90;;;;;;5013413;28;20033;-79
2021/09/24 05:32:45;;;;;;;8.52;3.83;;;16.80;99.90;;;;;;5014034;28;20022;-79
2021/09/24 05:35:12;;;;;;;;;;;16.70;99.90;;;;;;5013842;28;20531;-79
2021/09/24 05:37:38;;;;;;;9.52;4.10;;;16.40;99.90;;;;;;5013371;28;20265;-79
2021/09/24 05:40:04;;;;;;;;;;;16.30;99.90;;;;;;5013701;28;20050;-79
2021/09/24 05:42:30;;;;;;;11.55;5.57;;;16.60;99.90;;;;;;5013384;28;19912;-79
2021/09/24 05:44:56;;;;;;;;;;;16.80;99.90;;;;;;5012478;28;20030;-79
2021/09/24 05:47:22;;;;;;;14.57;7.32;;;16.80;99.90;;;;;;5013375;28;19933;-79
2021/09/24 05:49:47;;;;;;;;;;;16.80;99.90;;;;;;5012469;28;20029;-79
2021/09/24 05:52:13;;;;;;;8.80;4.22;;;16.90;99.90;;;;;;5013367;28;19905;-79
2021/09/24 05:54:39;;;;;;;;;;;17.00;99.90;;;;;;5014135;28;20025;-79
2021/09/24 05:57:04;;;;;;;12.00;6.20;;;16.90;99.90;;;;;;5013347;28;19905;-78
2021/09/24 05:59:30;;;;;;;;;;;16.80;99.90;;;;;;5013590;28;20017;-79
2021/09/24 06:01:56;;;;;;;7.05;3.17;;;16.80;99.90;;;;;;5013229;28;19959;-79
2021/09/24 06:04:22;;;;;;;8.15;3.40;;;16.70;99.90;;;;;;5011881;28;20026;-79
2021/09/24 06:06:47;;;;;;;;;;;17.00;99.90;;;;;;5013590;28;20441;-79
2021/09/24 06:09:14;;;;;;;8.05;3.42;;;17.10;99.90;;;;;;5013663;28;19995;-79
2021/09/24 06:11:40;;;;;;;4.63;2.60;;;17.10;99.90;;;;;;5016814;28;20164;-79
2021/09/24 06:14:06;;;;;;;;;;;17.10;99.90;;;;;;5017220;28;20501;-79
2021/09/24 06:16:32;;;;;;;6.13;2.00;;;17.20;99.90;;;;;;5017077;28;20312;-79
2021/09/24 06:18:58;;;;;;;4.47;1.88;;;17.20;99.90;;;;;;5016746;28;20470;-79
2021/09/24 06:21:24;;;;;;;;;;;17.20;99.90;;;;;;5017060;28;20033;-79
2021/09/24 06:23:50;;;;;;;7.45;2.30;;;17.20;99.90;;;;;;5015395;28;19919;-79
2021/09/24 06:26:16;;;;;;;6.40;2.42;;;17.00;99.90;;;;;;5016558;28;20486;-79
2021/09/24 06:28:42;;;;;;;;;;;17.10;99.90;;;;;;5016989;28;20084;-79
2021/09/24 06:31:08;;;;;;;5.53;2.05;;;16.70;99.90;;;;;;5016445;28;19909;-79
2021/09/24 06:33:33;;;;;;;;;;;16.50;99.90;;;;;;5016910;28;20149;-78
2021/09/24 06:35:59;;;;;;;10.57;5.00;;;16.60;99.90;;;;;;5016421;28;19960;-80
2021/09/24 06:38:25;;;;;;;;;;;16.80;99.90;;;;;;5016786;28;20010;-79
2021/09/24 06:40:51;;;;;;;7.50;3.10;;;16.90;99.90;;;;;;5016219;28;20377;-79
2021/09/24 06:43:17;;;;;;;;;;;16.80;99.90;;;;;;5016913;28;20033;-79
2021/09/24 06:45:43;;;;;;;4.28;1.60;;;16.80;99.90;;;;;;5016356;28;19949;-79
2021/09/24 06:48:08;;;;;;;;;;;17.10;99.90;;;;;;5016602;28;20490;-79
2021/09/24 06:50:35;;;;;;;3.58;1.38;;;17.30;99.90;;;;;;5016082;28;19996;-79
2021/09/24 06:53:01;;;;;;;3.38;1.20;;;17.20;99.90;;;;;;5016086;28;20022;-79
2021/09/24 06:55:28;;;;;;;3.83;1.35;;;17.30;99.90;;;;;;5016043;28;20397;-79
2021/09/24 06:57:54;;;;;;;2.28;1.20;;;17.20;99.90;;;;;;5016056;28;20022;-79
2021/09/24 07:00:21;;;;;;;3.97;1.40;;;17.10;99.90;;;;;;5016038;28;20367;-79
2021/09/24 07:02:47;;;;;;;3.10;1.42;;;17.50;99.90;;;;;;5016223;28;20030;-79
2021/09/24 07:05:13;;;;;;;;;;;17.70;99.90;;;;;;5016259;28;20032;-79
2021/09/24 07:07:39;;;;;;;3.05;1.30;;;17.80;99.90;;;;;;5015837;28;20016;-79
2021/09/24 07:10:05;;;;;;;3.08;1.23;;;17.60;99.90;;;;;;5015757;28;20482;-79
2021/09/24 07:12:31;;;;;;;3.30;1.20;;;17.60;99.90;;;;;;5015790;28;20465;-79
2021/09/24 07:14:57;;;;;;;;;;;17.70;99.90;;;;;;5016130;28;20045;-79
2021/09/24 07:17:23;;;;;;;1.85;0.95;;;17.60;99.90;;;;;;5015660;28;19909;-79
2021/09/24 07:19:48;;;;;;;;;;;17.70;99.90;;;;;;5016000;28;20478;-79
2021/09/24 07:22:15;;;;;;;3.58;1.13;;;17.70;99.90;;;;;;5014995;28;19956;-79
2021/09/24 07:24:42;;;;;;;3.65;1.13;;;17.70;99.90;;;;;;5015794;28;20505;-79
2021/09/24 07:27:08;;;;;;;1.98;1.20;;;17.60;99.90;;;;;;5014264;28;20065;-79
2021/09/24 07:29:33;;;;;;;;;;;17.20;99.90;;;;;;5015875;28;20053;-79
2021/09/24 07:31:59;;;;;;;0.90;0.70;;;17.30;99.90;;;;;;5015354;28;19909;-79
2021/09/24 07:34:25;;;;;;;;;;;17.50;99.90;;;;;;5014611;28;20370;-79
2021/09/24 07:36:51;;;;;;;1.40;0.93;;;17.70;99.90;;;;;;5015311;28;19906;-79
2021/09/24 07:39:17;;;;;;;;;;;17.80;99.90;;;;;;5015599;28;20034;-79
2021/09/24 07:41:42;;;;;;;2.88;1.00;;;18.00;99.90;;;;;;5015192;28;20385;-79
2021/09/24 07:44:08;;;;;;;;;;;18.20;99.90;;;;;;5015599;28;20037;-79
2021/09/24 07:46:35;;;;;;;2.88;1.50;;;18.40;99.90;;;;;;5013867;28;19952;-79
2021/09/24 07:49:03;;;;;;;3.83;1.52;;;18.50;99.90;;;;;;5014984;28;20565;-79
2021/09/24 07:51:28;;;;;;;5.65;1.48;;;18.60;99.90;;;;;;5015169;28;20390;-79
2021/09/24 07:53:56;;;;;;;4.05;1.70;;;18.60;99.90;;;;;;5015025;28;20025;-79
2021/09/24 07:56:21;;;;;;;3.13;1.60;;;18.40;99.90;;;;;;5015041;28;20386;-78
2021/09/24 07:58:47;;;;;;;2.25;1.15;;;18.10;99.90;;;;;;5014882;28;20022;-78
2021/09/24 08:01:13;;;;;;;3.30;0.90;;;18.10;99.90;;;;;;5015179;28;20068;-79
2021/09/24 08:03:39;;;;;;;1.20;1.00;;;18.00;99.90;;;;;;5013576;28;20021;-79
2021/09/24 08:06:04;;;;;;;;;;;18.00;99.90;;;;;;5015190;28;20057;-79
2021/09/24 08:08:30;;;;;;;9.88;1.73;;;18.30;99.90;;;;;;5015285;28;19912;-79
2021/09/24 08:10:56;;;;;;;4.57;1.70;;;18.50;99.90;;;;;;5014638;28;20029;-79
2021/09/24 08:13:24;;;;;;;4.03;1.60;;;18.80;99.90;;;;;;5014971;28;20030;-79
2021/09/24 08:15:50;;;;;;;5.20;1.58;;;18.70;99.90;;;;;;5014636;28;20433;-79
2021/09/24 08:18:17;;;;;;;3.25;1.77;;;18.90;99.90;;;;;;5015271;28;20026;-79
2021/09/24 08:20:44;;;;;;;2.72;1.20;;;18.80;99.90;;;;;;5014526;28;20026;-79
2021/09/24 08:23:11;;;;;;;3.13;1.60;;;18.60;99.90;;;;;;5014513;28;20025;-79
2021/09/24 08:25:37;;;;;;;2.40;1.42;;;18.80;99.90;;;;;;5014422;28;20104;-79
2021/09/24 08:28:04;;;;;;;2.40;1.30;;;18.70;99.90;;;;;;5014432;28;20105;-79
2021/09/24 08:30:29;;;;;;;3.25;1.45;;;18.90;99.90;;;;;;5014277;28;20026;-79
2021/09/24 08:32:56;;;;;;;1.88;1.30;;;19.00;99.90;;;;;;5014238;28;20030;-79
2021/09/24 08:35:23;;;;;;;2.97;1.25;;;19.40;99.90;;;;;;5014256;28;20017;-79
2021/09/24 08:37:49;;;;;;;2.08;1.20;;;20.10;99.90;;;;;;5014387;28;20026;-79
2021/09/24 08:40:21;;;;;;;3.47;1.30;;;20.60;99.90;;;;;;5013970;28;20057;-79
2021/09/24 08:42:47;;;;;;;3.83;1.50;;;20.90;99.90;;;;;;5012588;28;20446;-79
2021/09/24 08:45:28;;;;;;;1.40;0.90;;;21.00;99.90;;;;;;5014109;28;20104;-79
2021/09/24 08:47:59;;;;;;;1.77;1.10;;;21.40;99.90;;;;;;5012562;28;20026;-79
2021/09/24 08:50:27;;;;;;;1.85;1.10;;;22.30;99.60;;;;;;5013930;28;20022;-79
2021/09/24 08:52:53;;;;;;;2.17;1.40;;;22.30;98.80;;;;;;5013980;28;20026;-80
2021/09/24 08:55:19;;;;;;;2.55;1.27;;;22.10;99.00;;;;;;5013936;28;20029;-79
2021/09/24 08:57:46;;;;;;;3.22;1.20;;;21.70;99.50;;;;;;5013885;28;20359;-79
2021/09/24 09:00:13;;;;;;;1.60;1.10;;;21.70;99.90;;;;;;5013843;28;20502;-75
2021/09/24 09:03:05;;;;;;;2.10;1.05;;;22.60;98.60;;;;;;5013787;28;20069;-76
2021/09/24 09:06:18;;;;;;;2.03;1.10;;;23.10;97.10;;;;;;5070983;28;20433;-77
2021/09/24 09:08:44;;;;;;;2.63;1.30;;;23.30;96.60;;;;;;5071170;28;20416;-77
2021/09/24 09:11:14;;;;;;;2.92;1.33;;;23.40;96.30;;;;;;5070516;28;20071;-77
2021/09/24 09:13:46;;;;;;;4.10;1.80;;;23.40;95.80;;;;;;5071038;28;20029;-76
2021/09/24 09:16:16;;;;;;;2.50;1.60;;;23.00;96.40;;;;;;5068898;28;20017;-77
2021/09/24 09:18:44;;;;;;;2.13;1.33;;;22.00;97.70;;;;;;5070583;28;20376;-77
2021/09/24 09:21:13;;;;;;;2.75;1.40;;;22.40;97.50;;;;;;5070325;28;20095;-77
2021/09/24 09:23:43;;;;;;;7.68;1.60;;;22.30;97.60;;;;;;5070249;28;20056;-75
2021/09/24 09:26:10;;;;;;;2.22;1.30;;;22.20;97.60;;;;;;5070164;28;20025;-76
2021/09/24 09:29:02;;;;;;;2.58;1.30;;;22.10;97.70;;;;;;5070451;28;20027;-77
2021/09/24 09:31:32;;;;;;;3.95;1.40;;;22.50;97.40;;;;;;5069013;28;20035;-77
2021/09/24 09:34:01;;;;;;;3.28;1.50;;;22.70;96.90;;;;;;5070268;28;20100;-76
2021/09/24 09:36:29;;;;;;;2.88;1.50;;;22.90;96.30;;;;;;5070563;28;20095;-77
2021/09/24 09:38:57;;;;;;;2.10;1.33;;;23.10;96.20;;;;;;5068583;28;20115;-77
2021/09/24 09:41:24;;;;;;;2.35;1.20;;;22.90;96.10;;;;;;5070185;28;20020;-77
2021/09/24 09:43:51;;;;;;;3.13;1.20;;;22.20;96.30;;;;;;5069756;28;20040;-77
2021/09/24 09:46:23;;;;;;;4.28;1.35;;;21.20;98.80;;;;;;5070137;28;20421;-76
2021/09/24 09:49:02;;;;;;;2.08;1.20;;;20.60;99.90;;;;;;5069777;28;20045;-76
2021/09/24 09:51:29;;;;;;;2.75;1.40;;;21.30;99.70;;;;;;5069864;28;20079;-76
2021/09/24 09:53:55;;;;;;;2.72;1.40;;;21.70;99.20;;;;;;5069717;28;20400;-77
2021/09/24 09:56:21;;;;;;;3.53;1.60;;;21.80;99.00;;;;;;5069839;28;20034;-77
2021/09/24 09:58:47;;;;;;;4.95;1.42;;;21.90;98.80;;;;;;5068512;28;20036;-76
2021/09/24 10:01:17;;;;;;;1.55;1.13;;;22.30;98.50;;;;;;5069511;28;20025;-77
2021/09/24 10:03:51;;;;;;;2.15;1.27;;;22.90;97.60;;;;;;5068183;28;20066;-77
2021/09/24 10:06:34;;;;;;;2.80;1.50;;;22.90;96.80;;;;;;5069564;28;20401;-76
2021/09/24 10:09:03;;;;;;;2.08;1.40;;;22.50;97.30;;;;;;5069324;28;20100;-76
2021/09/24 10:11:34;;;;;;;2.88;1.40;;;22.10;97.90;;;;;;5069219;28;20385;-77
2021/09/24 10:14:04;;;;;;;2.38;1.52;;;21.70;98.80;;;;;;5069260;28;20477;-76
2021/09/24 10:16:34;;;;;;;2.97;1.30;;;21.70;98.80;;;;;;5060353;28;20024;-76
2021/09/24 10:19:00;;;;;;;2.03;1.20;;;21.70;99.10;;;;;;5056214;28;20017;-77
2021/09/24 10:21:27;;;;;;;2.88;1.60;;;22.10;98.50;;;;;;5056157;28;20380;-76
2021/09/24 10:23:54;;;;;;;3.42;1.30;;;21.70;98.80;;;;;;5055824;28;20092;-77
2021/09/24 10:26:33;;;;;;;5.47;1.52;;;21.70;99.10;;;;;;5056108;28;20377;-76
2021/09/24 10:29:09;;;;;;;8.05;1.40;;;21.70;99.00;;;;;;5054429;28;20017;-76
2021/09/24 10:31:38;;;;;;;4.15;1.40;;;22.00;98.80;;;;;;5056208;28;20028;-77
2021/09/24 10:34:05;;;;;;;6.28;1.60;;;21.60;99.10;;;;;;5055727;28;20425;-76
2021/09/24 10:36:40;;;;;;;7.75;1.70;;;21.50;99.00;;;;;;5055614;28;20071;-79
2021/09/24 10:39:28;;;;;;;5.40;1.58;;;21.80;98.90;;;;;;5055871;28;20454;-79
2021/09/24 10:42:21;;;;;;;6.22;1.77;;;21.80;98.60;;;;;;5054209;28;20081;-79
2021/09/24 10:45:01;;;;;;;5.85;1.65;;;21.30;99.50;;;;;;5055416;28;20021;-79
2021/09/24 10:47:50;;;;;;;11.10;1.52;;;21.40;99.70;;;;;;5054197;28;20025;-79
2021/09/24 10:50:37;;;;;;;3.72;1.50;;;21.60;99.80;;;;;;5048347;28;20070;-79
2021/09/24 10:53:29;;;;;;;6.28;1.70;;;21.80;99.30;;;;;;5036701;28;20029;-80
2021/09/24 10:55:54;;;;;;;4.90;1.50;;;21.60;99.50;;;;;;5043929;28;20029;-80
2021/09/24 10:58:26;;;;;;;7.72;1.60;;;21.70;99.30;;;;;;5041592;28;20515;-80
2021/09/24 11:00:54;;;;;;;2.60;1.35;;;22.30;98.50;;;;;;5043966;28;20026;-80
2021/09/24 11:03:22;;;;;;;2.63;1.50;;;22.70;98.20;;;;;;5044123;28;20434;-80
2021/09/24 11:06:06;;;;;;;3.22;1.48;;;22.40;97.70;;;;;;5041818;28;20409;-80
2021/09/24 11:08:38;;;;;;;2.33;1.45;;;22.20;98.00;;;;;;5043841;28;20025;-80
2021/09/24 11:11:07;;;;;;;4.03;1.40;;;23.10;97.70;;;;;;5042138;28;20131;-80
2021/09/24 11:13:34;;;;;;;6.13;1.40;;;24.00;96.20;;;;;;5043827;28;20108;-80
2021/09/24 11:16:04;;;;;;;3.88;1.40;;;24.00;95.70;;;;;;5041329;28;20452;-80
2021/09/24 11:18:53;;;;;;;4.35;1.60;;;23.60;95.70;;;;;;5034995;28;20033;-80
2021/09/24 11:21:21;;;;;;;1.75;1.40;;;23.10;96.10;;;;;;5034906;28;20022;-79
2021/09/24 11:23:50;;;;;;;4.20;1.40;;;23.40;96.30;;;;;;5035158;28;20113;-80
2021/09/24 11:26:29;;;;;;;8.43;1.75;;;23.50;95.80;;;;;;5034849;28;20025;-79
2021/09/24 11:29:15;;;;;;;2.00;1.30;;;23.70;95.50;;;;;;5032264;28;20075;-79
2021/09/24 11:31:52;;;;;;;3.15;1.60;;;23.70;95.40;;;;;;5035067;28;20021;-79
2021/09/24 11:34:33;;;;;;;2.88;1.40;;;22.60;97.10;;;;;;5034659;28;20026;-80
2021/09/24 11:37:01;;;;;;;3.67;1.70;;;22.50;97.70;;;;;;5034513;28;20030;-79
2021/09/24 11:39:27;;;;;;;2.50;1.58;;;22.70;97.10;;;;;;5034867;28;20049;-79
2021/09/24 11:42:12;;;;;;;2.78;1.50;;;22.50;97.40;;;;;;5034582;28;20025;-79
2021/09/24 11:44:46;;;;;;;;;;;22.70;97.60;;;;;;5033513;28;20032;-79
2021/09/24 11:47:29;;;;;;;2.33;1.50;;;23.00;97.00;;;;;;5034745;28;19904;-79
2021/09/24 11:50:10;;;;;;;2.83;1.50;;;22.90;97.20;;;;;;5034962;28;20117;-80
2021/09/24 11:52:49;;;;;;;3.47;1.70;;;22.90;97.10;;;;;;5034587;28;20021;-80
2021/09/24 11:55:25;;;;;;;1.83;1.40;;;23.00;97.10;;;;;;5034361;28;20104;-80
2021/09/24 11:58:10;;;;;;;3.40;1.65;;;22.90;97.10;;;;;;5034577;28;20025;-79
2021/09/24 12:00:44;;;;;;;2.78;1.58;;;23.10;97.00;;;;;;5034543;28;20039;-79
2021/09/24 12:03:23;;;;;;;2.77;1.40;;;22.80;97.10;;;;;;5034483;28;20022;-79
2021/09/24 12:06:10;;;;;;;2.60;1.50;;;22.70;97.50;;;;;;5033925;28;20523;-80
2021/09/24 12:08:48;;;;;;;1.95;1.30;;;22.60;97.60;;;;;;5034363;28;20030;-80
2021/09/24 12:11:19;;;;;;;2.70;1.20;;;22.60;97.80;;;;;;5034331;28;20075;-79
2021/09/24 12:14:03;;;;;;;2.28;1.40;;;23.40;96.80;;;;;;5033889;28;20080;-79
2021/09/24 12:16:42;;;;;;;1.80;1.30;;;23.90;95.70;;;;;;5032373;28;20028;-79
2021/09/24 12:19:17;;;;;;;3.20;1.20;;;24.20;95.20;;;;;;5032398;28;20568;-80
2021/09/24 12:21:50;;;;;;;1.80;1.40;;;23.80;95.50;;;;;;5033883;28;20017;-80
2021/09/24 12:24:35;;;;;;;3.60;1.30;;;23.50;96.30;;;;;;5033733;28;20033;-80
2021/09/24 12:27:07;;;;;;;3.72;1.40;;;23.60;96.20;;;;;;5033887;28;20076;-80
2021/09/24 12:29:34;;;;;;;4.05;1.48;;;24.00;95.50;;;;;;5033731;28;20079;-79
2021/09/24 12:32:15;;;;;;;2.45;1.30;;;23.90;95.40;;;;;;5033641;28;20407;-80
2021/09/24 12:34:53;;;;;;;2.85;1.70;;;23.40;95.90;;;;;;5033886;28;20068;-79
2021/09/24 12:37:32;;;;;;;3.58;1.60;;;22.70;96.80;;;;;;5033494;28;20025;-80
2021/09/24 12:40:01;;;;;;;2.50;1.58;;;22.20;98.30;;;;;;5033319;28;20040;-79
2021/09/24 12:42:41;;;;;;;4.22;1.73;;;22.60;98.10;;;;;;5033741;28;20017;-79
2021/09/24 12:45:10;;;;;;;1.48;1.20;;;22.80;97.80;;;;;;5031873;28;20032;-79
2021/09/24 12:47:38;;;;;;;3.75;1.40;;;23.20;97.40;;;;;;5032164;28;20405;-79
2021/09/24 12:50:08;;;;;;;1.95;1.38;;;23.40;97.10;;;;;;5033410;28;20022;-80
2021/09/24 12:52:36;;;;;;;2.45;1.67;;;23.30;96.80;;;;;;5033305;28;20057;-79
2021/09/24 12:55:07;;;;;;;2.08;1.60;;;23.10;97.40;;;;;;5033600;28;20029;-79
2021/09/24 12:57:33;;;;;;;2.03;1.60;;;23.00;97.50;;;;;;5033353;28;20036;-79
2021/09/24 13:00:04;;;;;;;5.18;2.28;;;22.80;97.70;;;;;;5033575;28;20507;-79
2021/09/24 13:02:30;;;;;;;3.58;1.70;;;22.50;97.80;;;;;;5031746;28;20112;-79
2021/09/24 13:04:56;;;;;;;3.15;1.50;;;21.70;99.30;;;;;;5031732;28;20145;-79
2021/09/24 13:07:26;;;;;;;3.55;1.63;;;22.50;99.00;;;;;;5033254;28;20496;-79
2021/09/24 13:10:07;;;;;;;4.78;1.80;;;22.60;98.40;;;;;;5033253;28;20445;-79